createdAt,value
2023-05-29T00:01:58.034Z,53.71
2023-05-29T00:04:24.657Z,53.95
2023-05-29T00:06:51.714Z,53.99
2023-05-29T00:09:18.707Z,54.57
2023-05-29T00:11:48.290Z,54.61
2023-05-29T00:14:14.940Z,54.94
2023-05-29T00:16:41.693Z,54.70
2023-05-29T00:19:09.901Z,54.89
2023-05-29T00:21:36.442Z,55.39
2023-05-29T00:24:02.915Z,54.82
2023-05-29T00:26:29.285Z,55.03
2023-05-29T00:28:55.704Z,55.50
2023-05-29T00:31:22.270Z,55.68
2023-05-29T00:36:36.085Z,55.75
2023-05-29T00:39:02.547Z,55.45
2023-05-29T00:41:28.998Z,56.00
2023-05-29T00:43:55.695Z,56.13
2023-05-29T00:46:22.286Z,56.12
2023-05-29T00:48:50.062Z,56.27
2023-05-29T00:51:17.467Z,56.32
2023-05-29T00:53:45.157Z,56.28
2023-05-29T00:56:12.353Z,56.56
2023-05-29T00:58:39.048Z,56.68
2023-05-29T01:01:05.576Z,56.73
2023-05-29T01:03:33.401Z,56.79
2023-05-29T01:06:00.152Z,56.91
2023-05-29T01:08:31.169Z,56.96
2023-05-29T01:16:39.457Z,56.83
2023-05-29T01:19:41.971Z,57.53
2023-05-29T01:22:35.784Z,57.66
2023-05-29T01:25:22.634Z,57.73
2023-05-29T01:27:50.103Z,57.44
2023-05-29T01:30:17.530Z,57.55
2023-05-29T01:32:44.243Z,57.61
2023-05-29T01:35:10.628Z,57.84
2023-05-29T01:37:37.037Z,57.98
2023-05-29T01:40:05.381Z,58.10
2023-05-29T01:42:32.009Z,58.21
2023-05-29T01:44:58.905Z,58.04
2023-05-29T01:47:25.801Z,58.06
2023-05-29T01:49:52.881Z,58.27
2023-05-29T01:52:19.556Z,58.28
2023-05-29T01:54:46.008Z,58.27
2023-05-29T01:59:55.511Z,58.61
2023-05-29T02:02:23.986Z,58.68
2023-05-29T02:04:51.170Z,58.71
2023-05-29T02:07:17.615Z,58.90
2023-05-29T02:09:47.239Z,58.53
2023-05-29T02:12:13.606Z,58.91
2023-05-29T02:14:41.239Z,59.00
2023-05-29T02:19:48.949Z,59.12
2023-05-29T02:25:15.113Z,59.22
2023-05-29T02:27:41.563Z,59.24
2023-05-29T02:30:09.242Z,59.43
2023-05-29T02:32:35.731Z,59.41
2023-05-29T02:37:42.989Z,59.19
2023-05-29T02:40:10.390Z,59.24
2023-05-29T02:48:10.820Z,59.18
2023-05-29T02:50:37.305Z,59.05
2023-05-29T02:53:03.802Z,59.38
2023-05-29T02:55:30.288Z,58.89
2023-05-29T02:57:56.974Z,59.16
2023-05-29T03:00:23.855Z,59.24
2023-05-29T03:05:31.407Z,59.13
2023-05-29T03:08:17.466Z,59.29
2023-05-29T03:10:44.874Z,59.15
2023-05-29T03:13:11.413Z,59.23
2023-05-29T03:15:37.814Z,59.28
2023-05-29T03:18:04.353Z,59.18
2023-05-29T03:20:30.808Z,59.00
2023-05-29T03:22:57.521Z,59.33
2023-05-29T03:25:24.013Z,59.16
2023-05-29T03:27:50.469Z,59.05
2023-05-29T03:33:04.573Z,59.41
2023-05-29T03:35:44.528Z,58.88
2023-05-29T03:38:11.414Z,59.07
2023-05-29T03:40:37.856Z,58.52
2023-05-29T03:43:04.460Z,58.72
2023-05-29T03:45:30.948Z,59.04
2023-05-29T03:47:57.444Z,58.56
2023-05-29T03:50:31.440Z,59.09
2023-05-29T03:52:57.791Z,58.92
2023-05-29T03:55:24.232Z,59.17
2023-05-29T03:57:50.685Z,59.34
2023-05-29T04:00:17.600Z,59.08
2023-05-29T04:02:44.099Z,59.20
2023-05-29T04:05:10.581Z,59.17
2023-05-29T04:10:20.983Z,59.30
2023-05-29T04:12:47.461Z,59.52
2023-05-29T04:17:57.652Z,59.27
2023-05-29T04:20:43.881Z,59.58
2023-05-29T04:23:10.800Z,59.32
2023-05-29T04:28:24.535Z,59.54
2023-05-29T04:30:51.010Z,59.42
2023-05-29T04:33:18.819Z,59.27
2023-05-29T04:35:54.061Z,59.26
2023-05-29T04:38:38.043Z,59.28
2023-05-29T04:41:04.588Z,58.99
2023-05-29T04:43:31.270Z,58.69
2023-05-29T04:45:57.659Z,58.75
2023-05-29T04:48:24.180Z,58.66
2023-05-29T04:50:50.550Z,58.64
2023-05-29T04:53:17.363Z,58.44
2023-05-29T04:55:43.801Z,58.72
2023-05-29T04:58:10.170Z,58.08
2023-05-29T05:00:36.588Z,58.41
2023-05-29T05:03:03.044Z,58.09
2023-05-29T05:05:29.522Z,57.68
2023-05-29T05:07:55.903Z,58.13
2023-05-29T05:13:08.246Z,57.33
2023-05-29T05:15:34.822Z,57.23
2023-05-29T05:20:47.834Z,56.94
2023-05-29T05:23:14.302Z,56.94
2023-05-29T05:28:21.472Z,56.67
2023-05-29T05:30:48.325Z,56.19
2023-05-29T05:36:15.553Z,56.05
2023-05-29T05:38:41.933Z,55.59
2023-05-29T05:41:08.319Z,55.41
2023-05-29T05:43:34.787Z,55.36
2023-05-29T05:46:01.188Z,54.88
2023-05-29T05:48:27.714Z,54.77
2023-05-29T05:50:54.297Z,54.43
2023-05-29T05:53:22.024Z,54.27
2023-05-29T05:55:48.507Z,53.74
2023-05-29T05:58:15.000Z,53.84
2023-05-29T06:00:41.378Z,53.71
2023-05-29T06:03:07.808Z,53.72
2023-05-29T06:05:37.331Z,53.19
2023-05-29T06:08:03.795Z,53.17
2023-05-29T06:10:30.217Z,53.15
2023-05-29T06:12:56.592Z,52.81
2023-05-29T06:15:23.006Z,52.78
2023-05-29T06:17:49.955Z,52.95
2023-05-29T06:20:34.394Z,52.60
2023-05-29T06:23:01.388Z,52.21
2023-05-29T06:25:34.247Z,51.79
2023-05-29T06:28:06.841Z,51.79
2023-05-29T06:33:17.043Z,51.61
2023-05-29T06:35:43.413Z,51.47
2023-05-29T06:46:18.154Z,50.16
2023-05-29T06:48:44.973Z,50.09
2023-05-29T06:51:13.248Z,50.01
2023-05-29T06:53:40.065Z,50.13
2023-05-29T06:56:07.220Z,50.14
2023-05-29T06:58:34.315Z,50.24
2023-05-29T07:01:03.974Z,50.12
2023-05-29T07:03:32.731Z,49.52
2023-05-29T07:05:59.223Z,48.97
2023-05-29T07:08:25.984Z,49.40
2023-05-29T07:10:52.680Z,49.27
2023-05-29T07:13:19.220Z,49.17
2023-05-29T07:15:45.977Z,49.43
2023-05-29T07:18:12.469Z,49.05
2023-05-29T07:20:39.192Z,48.88
2023-05-29T07:23:05.794Z,48.40
2023-05-29T07:25:32.206Z,48.43
2023-05-29T07:28:02.877Z,47.97
2023-05-29T07:30:37.286Z,47.88
2023-05-29T07:33:03.745Z,47.88
2023-05-29T07:35:30.297Z,47.74
2023-05-29T07:37:56.736Z,47.20
2023-05-29T07:40:23.155Z,47.16
2023-05-29T07:42:49.498Z,46.49
2023-05-29T07:45:16.141Z,46.67
2023-05-29T07:47:42.557Z,46.93
2023-05-29T07:50:10.331Z,47.05
2023-05-29T07:52:36.809Z,47.17
2023-05-29T07:55:03.365Z,47.30
2023-05-29T07:57:29.933Z,47.20
2023-05-29T07:59:56.422Z,47.09
2023-05-29T08:02:22.913Z,46.07
2023-05-29T08:04:49.389Z,46.25
2023-05-29T08:07:16.109Z,45.77
2023-05-29T08:09:42.486Z,45.44
2023-05-29T08:12:08.964Z,45.76
2023-05-29T08:14:35.463Z,45.22
2023-05-29T08:17:01.857Z,45.08
2023-05-29T08:19:28.253Z,45.36
2023-05-29T08:21:54.636Z,45.13
2023-05-29T08:24:21.560Z,44.68
2023-05-29T08:26:47.954Z,44.52
2023-05-29T08:29:15.063Z,44.44
2023-05-29T08:31:41.555Z,44.04
2023-05-29T08:34:08.560Z,44.38
2023-05-29T08:36:34.941Z,44.20
2023-05-29T08:39:01.487Z,43.92
2023-05-29T08:41:39.421Z,44.02
2023-05-29T08:44:08.674Z,43.47
2023-05-29T08:46:37.349Z,43.84
2023-05-29T08:49:05.053Z,43.57
2023-05-29T08:51:35.661Z,43.74
2023-05-29T08:54:03.066Z,43.81
2023-05-29T08:56:34.928Z,43.73
2023-05-29T08:59:05.124Z,43.65
2023-05-29T09:01:36.093Z,42.79
2023-05-29T09:04:03.117Z,42.45
2023-05-29T09:06:29.635Z,42.28
2023-05-29T09:08:57.029Z,42.23
2023-05-29T09:11:23.411Z,41.77
2023-05-29T09:13:50.180Z,42.26
2023-05-29T09:16:19.832Z,41.89
2023-05-29T09:18:47.635Z,41.47
2023-05-29T09:21:28.275Z,41.50
2023-05-29T09:23:55.852Z,41.81
2023-05-29T09:26:24.115Z,41.27
2023-05-29T09:28:51.003Z,41.57
2023-05-29T09:31:24.314Z,41.76
2023-05-29T09:33:51.496Z,41.65
2023-05-29T09:36:23.151Z,40.78
2023-05-29T09:38:53.412Z,40.49
2023-05-29T09:41:24.737Z,39.96
2023-05-29T09:43:51.200Z,40.05
2023-05-29T09:46:21.240Z,39.91
2023-05-29T09:48:48.488Z,40.28
2023-05-29T09:51:26.841Z,40.48
2023-05-29T09:53:54.666Z,40.61
2023-05-29T09:56:25.591Z,40.26
2023-05-29T09:58:54.429Z,40.01
2023-05-29T10:01:21.058Z,40.07
2023-05-29T10:03:47.513Z,39.50
2023-05-29T10:06:19.280Z,39.70
2023-05-29T10:08:54.977Z,39.81
2023-05-29T10:11:25.985Z,39.78
2023-05-29T10:13:53.399Z,40.08
2023-05-29T10:16:25.122Z,40.16
2023-05-29T10:18:56.124Z,40.37
2023-05-29T10:21:25.491Z,39.81
2023-05-29T10:23:52.502Z,39.80
2023-05-29T10:26:25.148Z,39.62
2023-05-29T10:29:16.814Z,39.50
2023-05-29T10:32:13.840Z,39.04
2023-05-29T10:34:46.323Z,39.67
2023-05-29T10:37:36.536Z,38.33
2023-05-29T10:40:08.085Z,38.23
2023-05-29T10:42:51.496Z,39.05
2023-05-29T10:45:30.300Z,39.11
2023-05-29T10:48:17.238Z,38.99
2023-05-29T10:50:48.116Z,39.27
2023-05-29T10:53:20.401Z,38.73
2023-05-29T10:55:46.831Z,38.59
2023-05-29T10:58:19.209Z,38.53
2023-05-29T11:00:47.225Z,38.55
2023-05-29T11:03:19.185Z,37.90
2023-05-29T11:06:09.037Z,38.45
2023-05-29T11:08:42.806Z,37.91
2023-05-29T11:11:12.654Z,37.63
2023-05-29T11:13:41.818Z,37.39
2023-05-29T11:16:29.470Z,36.92
2023-05-29T11:18:58.259Z,36.69
2023-05-29T11:21:50.523Z,36.30
2023-05-29T11:24:28.273Z,36.37
2023-05-29T11:26:57.291Z,36.68
2023-05-29T11:29:25.796Z,36.35
2023-05-29T11:32:03.579Z,36.58
2023-05-29T11:34:31.733Z,36.07
2023-05-29T11:37:02.376Z,36.20
2023-05-29T11:39:30.150Z,35.92
2023-05-29T11:41:56.918Z,36.12
2023-05-29T11:44:27.210Z,35.65
2023-05-29T11:47:08.732Z,35.40
2023-05-29T11:49:37.861Z,35.49
2023-05-29T11:52:17.177Z,35.45
2023-05-29T11:54:48.289Z,35.53
2023-05-29T11:57:22.451Z,35.19
2023-05-29T11:59:53.041Z,35.93
2023-05-29T12:02:20.329Z,35.62
2023-05-29T12:05:01.738Z,35.61
2023-05-29T12:07:28.199Z,34.94
2023-05-29T12:09:58.570Z,34.94
2023-05-29T12:12:25.082Z,34.77
2023-05-29T12:14:52.221Z,34.54
2023-05-29T12:17:19.159Z,34.34
2023-05-29T12:19:45.585Z,34.47
2023-05-29T12:22:12.568Z,33.85
2023-05-29T12:24:43.260Z,33.66
2023-05-29T12:27:10.975Z,33.34
2023-05-29T12:29:56.101Z,33.11
2023-05-29T12:32:22.601Z,33.75
2023-05-29T12:34:52.449Z,33.81
2023-05-29T12:37:23.572Z,33.08
2023-05-29T12:40:10.112Z,33.65
2023-05-29T12:42:39.070Z,32.30
2023-05-29T12:45:08.988Z,32.33
2023-05-29T12:47:35.672Z,31.65
2023-05-29T12:50:24.306Z,31.27
2023-05-29T12:53:05.111Z,31.53
2023-05-29T12:55:40.589Z,30.46
2023-05-29T12:58:08.781Z,31.05
2023-05-29T13:00:36.107Z,31.84
2023-05-29T13:03:02.798Z,31.42
2023-05-29T13:05:29.587Z,31.09
2023-05-29T13:07:56.140Z,31.03
2023-05-29T13:10:22.676Z,30.86
2023-05-29T13:12:54.824Z,31.02
2023-05-29T13:15:22.704Z,30.58
2023-05-29T13:17:49.256Z,30.75
2023-05-29T13:20:16.408Z,31.33
2023-05-29T13:22:44.759Z,31.15
2023-05-29T13:25:14.699Z,30.87
2023-05-29T13:27:45.968Z,30.18
2023-05-29T13:30:13.703Z,28.93
2023-05-29T13:32:42.086Z,28.77
2023-05-29T13:35:09.465Z,28.02
2023-05-29T13:37:37.795Z,27.70
2023-05-29T13:40:05.998Z,27.24
2023-05-29T13:42:32.765Z,26.75
2023-05-29T13:44:59.156Z,26.96
2023-05-29T13:47:27.706Z,27.91
2023-05-29T13:49:54.807Z,26.86
2023-05-29T13:52:21.194Z,27.39
2023-05-29T13:54:47.583Z,27.00
2023-05-29T13:57:13.996Z,26.29
2023-05-29T13:59:40.585Z,27.64
2023-05-29T14:02:07.114Z,28.17
2023-05-29T14:04:33.568Z,28.19
2023-05-29T14:07:00.028Z,28.12
2023-05-29T14:09:29.727Z,27.85
2023-05-29T14:11:57.389Z,28.32
2023-05-29T14:14:24.380Z,28.26
2023-05-29T14:16:51.244Z,28.34
2023-05-29T14:19:18.934Z,28.14
2023-05-29T14:21:45.943Z,28.31
2023-05-29T14:24:13.816Z,28.55
2023-05-29T14:26:40.522Z,27.76
2023-05-29T14:29:14.197Z,27.98
2023-05-29T14:31:45.086Z,27.40
2023-05-29T14:34:13.118Z,27.24
2023-05-29T14:36:40.870Z,27.01
2023-05-29T14:39:07.741Z,27.15
2023-05-29T14:41:36.148Z,27.47
2023-05-29T14:44:03.236Z,26.85
2023-05-29T14:46:32.742Z,26.81
2023-05-29T14:49:03.044Z,26.75
2023-05-29T14:51:29.644Z,27.22
2023-05-29T14:53:56.173Z,26.56
2023-05-29T14:56:22.813Z,26.80
2023-05-29T14:58:49.353Z,25.80
2023-05-29T15:01:17.137Z,25.81
2023-05-29T15:03:43.926Z,25.94
2023-05-29T15:06:12.754Z,26.43
2023-05-29T15:08:41.881Z,25.98
2023-05-29T15:11:10.261Z,26.00
2023-05-29T15:13:37.120Z,25.47
2023-05-29T15:16:04.574Z,24.49
2023-05-29T15:18:31.999Z,24.30
2023-05-29T15:20:59.001Z,24.86
2023-05-29T15:23:26.836Z,24.61
2023-05-29T15:25:54.391Z,25.69
2023-05-29T15:28:21.464Z,26.06
2023-05-29T15:30:48.520Z,26.04
2023-05-29T15:33:14.953Z,25.86
2023-05-29T15:35:43.421Z,26.78
2023-05-29T15:38:13.235Z,26.28
2023-05-29T15:40:41.094Z,26.63
2023-05-29T15:43:07.512Z,26.78
2023-05-29T15:45:33.968Z,26.88
2023-05-29T15:48:00.616Z,27.59
2023-05-29T15:50:27.074Z,27.53
2023-05-29T15:52:55.744Z,27.29
2023-05-29T15:55:23.653Z,26.59
2023-05-29T15:57:50.364Z,26.38
2023-05-29T16:00:17.391Z,26.04
2023-05-29T16:02:44.422Z,25.56
2023-05-29T16:05:11.654Z,25.22
2023-05-29T16:07:38.388Z,25.44
2023-05-29T16:10:05.846Z,24.67
2023-05-29T16:12:32.469Z,24.37
2023-05-29T16:14:59.823Z,23.99
2023-05-29T16:17:27.780Z,24.12
2023-05-29T16:19:57.801Z,23.88
2023-05-29T16:24:54.912Z,24.21
2023-05-29T16:27:21.312Z,24.44
2023-05-29T16:29:47.865Z,24.21
2023-05-29T16:32:14.365Z,24.28
2023-05-29T16:34:40.938Z,23.92
2023-05-29T16:37:09.469Z,24.42
2023-05-29T16:39:37.495Z,24.11
2023-05-29T16:42:04.294Z,24.31
2023-05-29T16:44:30.715Z,24.22
2023-05-29T16:46:57.166Z,23.87
2023-05-29T16:49:23.606Z,24.27
2023-05-29T16:51:50.747Z,24.06
2023-05-29T16:54:17.162Z,23.66
2023-05-29T16:56:43.596Z,23.64
2023-05-29T16:59:10.233Z,22.93
2023-05-29T17:01:37.114Z,23.15
2023-05-29T17:04:03.960Z,23.09
2023-05-29T17:06:30.309Z,23.36
2023-05-29T17:08:56.707Z,23.55
2023-05-29T17:11:23.211Z,23.81
2023-05-29T17:13:49.563Z,23.26
2023-05-29T17:16:15.963Z,23.54
2023-05-29T17:18:42.360Z,23.78
2023-05-29T17:21:08.797Z,23.60
2023-05-29T17:23:35.537Z,23.14
2023-05-29T17:26:02.104Z,22.61
2023-05-29T17:28:28.586Z,21.99
2023-05-29T17:30:55.132Z,22.34
2023-05-29T17:33:21.555Z,21.79
2023-05-29T17:35:48.294Z,21.72
2023-05-29T17:38:14.757Z,21.78
2023-05-29T17:40:41.173Z,21.87
2023-05-29T17:43:07.803Z,21.95
2023-05-29T17:45:34.225Z,22.52
2023-05-29T17:48:00.894Z,22.70
2023-05-29T17:50:27.307Z,22.59
2023-05-29T17:52:53.690Z,22.03
2023-05-29T17:55:20.060Z,21.47
2023-05-29T17:57:46.414Z,21.33
2023-05-29T18:00:13.455Z,21.01
2023-05-29T18:02:39.987Z,21.10
2023-05-29T18:05:07.157Z,21.03
2023-05-29T18:07:33.564Z,21.34
2023-05-29T18:09:59.929Z,21.55
2023-05-29T18:12:37.382Z,21.75
2023-05-29T18:15:11.032Z,22.09
2023-05-29T18:17:37.539Z,22.64
2023-05-29T18:20:04.270Z,22.64
2023-05-29T18:22:30.865Z,22.55
2023-05-29T18:24:57.230Z,22.74
2023-05-29T18:27:23.655Z,23.30
2023-05-29T18:29:50.228Z,23.05
2023-05-29T18:32:16.670Z,23.72
2023-05-29T18:34:43.178Z,23.59
2023-05-29T18:37:09.679Z,23.91
2023-05-29T18:39:36.025Z,24.04
2023-05-29T18:42:02.892Z,24.18
2023-05-29T18:44:29.341Z,24.43
2023-05-29T18:46:56.110Z,23.98
2023-05-29T18:49:22.512Z,23.83
2023-05-29T18:51:48.969Z,23.78
2023-05-29T18:54:16.893Z,23.76
2023-05-29T18:56:43.289Z,24.12
2023-05-29T18:59:09.672Z,23.62
2023-05-29T19:01:37.596Z,24.12
2023-05-29T19:04:07.126Z,24.28
2023-05-29T19:06:33.629Z,24.60
2023-05-29T19:09:02.266Z,24.66
2023-05-29T19:11:29.176Z,24.91
2023-05-29T19:13:55.700Z,24.98
2023-05-29T19:16:22.701Z,25.20
2023-05-29T19:18:49.478Z,25.35
2023-05-29T19:21:16.225Z,25.79
2023-05-29T19:23:42.622Z,26.32
2023-05-29T19:26:09.035Z,26.38
2023-05-29T19:28:35.996Z,26.90
2023-05-29T19:31:02.477Z,26.74
2023-05-29T19:33:28.976Z,26.97
2023-05-29T19:35:55.462Z,27.71
2023-05-29T19:38:21.875Z,27.50
2023-05-29T19:40:48.326Z,27.36
2023-05-29T19:43:15.182Z,27.84
2023-05-29T19:45:42.368Z,28.03
2023-05-29T19:48:11.647Z,28.08
2023-05-29T19:50:38.102Z,28.69
2023-05-29T19:53:04.624Z,28.85
2023-05-29T19:55:31.251Z,29.14
2023-05-29T19:57:57.648Z,28.98
2023-05-29T20:00:24.098Z,29.17
2023-05-29T20:02:50.978Z,29.28
2023-05-29T20:05:17.444Z,29.45
2023-05-29T20:07:43.922Z,29.94
2023-05-29T20:10:10.550Z,30.03
2023-05-29T20:12:37.212Z,30.25
2023-05-29T20:15:03.882Z,30.23
2023-05-29T20:17:30.333Z,30.54
2023-05-29T20:19:56.890Z,30.58
2023-05-29T20:22:23.288Z,30.65
2023-05-29T20:24:49.705Z,31.04
2023-05-29T20:27:16.648Z,30.89
2023-05-29T20:29:43.062Z,31.20
2023-05-29T20:32:09.574Z,31.28
2023-05-29T20:34:36.164Z,31.60
2023-05-29T20:37:02.686Z,31.62
2023-05-29T20:39:35.574Z,31.81
2023-05-29T20:42:05.171Z,32.26
2023-05-29T20:44:32.617Z,32.16
2023-05-29T20:46:59.584Z,32.25
2023-05-29T20:49:26.327Z,32.53
2023-05-29T20:51:55.680Z,32.93
2023-05-29T20:54:22.277Z,33.01
2023-05-29T20:56:48.665Z,33.13
2023-05-29T20:59:15.942Z,33.51
2023-05-29T21:01:42.707Z,33.70
2023-05-29T21:04:09.281Z,33.95
2023-05-29T21:06:36.492Z,34.10
2023-05-29T21:09:05.940Z,34.47
2023-05-29T21:11:37.542Z,34.68
2023-05-29T21:14:06.414Z,35.05
2023-05-29T21:16:33.992Z,35.07
2023-05-29T21:19:00.444Z,35.50
2023-05-29T21:21:27.520Z,35.67
2023-05-29T21:23:55.991Z,36.02
2023-05-29T21:26:22.481Z,35.98
2023-05-29T21:28:48.878Z,36.33
2023-05-29T21:31:16.124Z,37.02
2023-05-29T21:33:43.102Z,36.86
2023-05-29T21:36:12.788Z,37.03
2023-05-29T21:38:39.185Z,37.26
2023-05-29T21:41:05.888Z,37.59
2023-05-29T21:43:35.901Z,37.84
2023-05-29T21:46:03.174Z,37.69
2023-05-29T21:48:29.787Z,38.03
2023-05-29T21:50:56.639Z,38.20
2023-05-29T21:53:24.913Z,38.38
2023-05-29T21:55:51.353Z,38.68
2023-05-29T21:58:17.924Z,38.56
2023-05-29T22:00:45.006Z,38.83
2023-05-29T22:03:11.900Z,39.00
2023-05-29T22:05:38.440Z,39.69
2023-05-29T22:08:04.881Z,39.82
2023-05-29T22:10:31.355Z,39.91
2023-05-29T22:13:02.411Z,40.20
2023-05-29T22:15:30.682Z,40.60
2023-05-29T22:17:58.242Z,41.04
2023-05-29T22:20:26.339Z,41.06
2023-05-29T22:22:58.670Z,41.19
2023-05-29T22:25:29.150Z,41.62
2023-05-29T22:27:56.681Z,41.97
2023-05-29T22:30:23.561Z,41.87
2023-05-29T22:32:50.049Z,42.09
2023-05-29T22:35:16.554Z,42.42
2023-05-29T22:37:43.149Z,42.49
2023-05-29T22:40:15.588Z,42.68
2023-05-29T22:42:42.036Z,42.80
2023-05-29T22:45:09.567Z,42.98
2023-05-29T22:47:36.070Z,43.09
2023-05-29T22:50:03.590Z,43.08
2023-05-29T22:52:30.092Z,43.56
2023-05-29T22:54:58.950Z,43.59
2023-05-29T22:57:25.355Z,44.09
2023-05-29T22:59:52.573Z,44.24
2023-05-29T23:02:19.273Z,44.30
2023-05-29T23:04:46.680Z,44.68
2023-05-29T23:07:13.999Z,45.01
2023-05-29T23:09:40.837Z,45.06
2023-05-29T23:12:10.195Z,45.32
2023-05-29T23:14:37.180Z,45.38
2023-05-29T23:17:04.669Z,45.65
2023-05-29T23:19:31.134Z,45.82
2023-05-29T23:21:57.574Z,45.92
2023-05-29T23:24:25.897Z,46.02
2023-05-29T23:26:55.908Z,45.90
2023-05-29T23:29:22.588Z,46.50
2023-05-29T23:31:49.286Z,46.38
2023-05-29T23:34:18.967Z,46.67
2023-05-29T23:36:46.649Z,46.90
2023-05-29T23:39:14.121Z,47.26
2023-05-29T23:41:44.802Z,47.29
2023-05-29T23:44:12.009Z,47.46
2023-05-29T23:46:39.418Z,47.65
2023-05-29T23:49:07.559Z,47.87
2023-05-29T23:51:34.381Z,47.90
2023-05-29T23:54:01.334Z,48.20
2023-05-29T23:56:28.210Z,48.42
2023-05-29T23:58:55.393Z,48.96
